Startpagina
METAR-TAF:

METAR-TAF

Vliegvelden :

Luchthaven Maputo

Maputo, Mozambique

breedte: 25-55S, lengte: 032-34E, hoogte: 39 m

Actueel weer

Dit bericht is 16 minuten geleden gemaakt, om 03:00 UTC
Wind 4 kt uit het westzuidwesten
Temperatuur 13°C
Vochtigheid 88%
Druk 1023 hPa
Zicht 10 km of meer
Weinig wolken op 2000 ft

METAR: FQMA 130300Z 24004KT 9999 FEW020 13/11 Q1023 NOSIG

Tijdstip: 05:16 (03:16 UTC)

Verwachting

Dit bericht is 11 uur en het 16 minuten geleden gemaakt, om 16:00 UTC
Verwachting geldig van 12 om 18 UTC tot 13 om 24 UTC
Wind 8 kt uit het noordoosten
Zicht 10 km of meer
Weinig wolken op 2000 ft
Wijzigt naar
van 12 om 23 UTC tot 13 om 01 UTC
Wind 2 kt uit variabele richting
Wijzigt naar
van 13 om 05 UTC tot 13 om 07 UTC
Wind 5 kt uit het westzuidwesten
Wijzigt naar
van 13 om 12 UTC tot 13 om 14 UTC
Wind 5 kt uit het zuidoosten

TAF: FQMA 121600Z 1218/1324 05008KT 9999 FEW020 TX24/1313Z TN13/1302Z BECMG 1223/1301 VRB02KT BECMG 1305/1307 25005KT BECMG 1312/1314 14005KT

Waarnemingen en weersverwachtingen van meer dan 4000 vliegvelden (METAR en TAF).

De beschikbare stations zijn de gele en rode punten op de kaart.

Ga met uw muis naar het station om de naam te zien.

Klik dan om waarnemingen en weersverwachtingen te zien.

kaart wijzigen: klik op de groene knoppen met een zwart kruis om in te zoomen, op de groene knop met een streepje om uit te zoomen of op de groene pijlen voor aangrenzende kaarten.


METAR-TAF: